sensor_id;sensor_type;location;lat;lon;timestamp;P1;durP1;ratioP1;P2;durP2;ratioP2
15043;SDS011;7619;48.562;8.910;2023-04-15T00:01:17;3.23;;;2.37;;
15043;SDS011;7619;48.562;8.910;2023-04-15T00:03:45;3.13;;;2.80;;
15043;SDS011;7619;48.562;8.910;2023-04-15T00:06:14;5.17;;;2.73;;
15043;SDS011;7619;48.562;8.910;2023-04-15T00:08:42;3.53;;;2.90;;
15043;SDS011;7619;48.562;8.910;2023-04-15T00:11:10;7.67;;;3.00;;
15043;SDS011;7619;48.562;8.910;2023-04-15T00:13:38;5.13;;;2.40;;
15043;SDS011;7619;48.562;8.910;2023-04-15T00:16:07;3.97;;;2.73;;
15043;SDS011;7619;48.562;8.910;2023-04-15T00:18:36;6.73;;;3.50;;
15043;SDS011;7619;48.562;8.910;2023-04-15T00:21:04;7.00;;;2.93;;
15043;SDS011;7619;48.562;8.910;2023-04-15T00:23:32;8.80;;;3.20;;
15043;SDS011;7619;48.562;8.910;2023-04-15T00:26:02;6.50;;;2.60;;
15043;SDS011;7619;48.562;8.910;2023-04-15T00:28:30;4.37;;;2.83;;
15043;SDS011;7619;48.562;8.910;2023-04-15T00:30:58;5.60;;;2.77;;
15043;SDS011;7619;48.562;8.910;2023-04-15T00:33:26;7.20;;;3.00;;
15043;SDS011;7619;48.562;8.910;2023-04-15T00:35:54;3.67;;;2.53;;
15043;SDS011;7619;48.562;8.910;2023-04-15T00:38:22;3.13;;;2.37;;
15043;SDS011;7619;48.562;8.910;2023-04-15T00:40:50;4.80;;;2.70;;
15043;SDS011;7619;48.562;8.910;2023-04-15T00:43:19;6.47;;;2.87;;
15043;SDS011;7619;48.562;8.910;2023-04-15T00:45:47;6.53;;;3.43;;
15043;SDS011;7619;48.562;8.910;2023-04-15T00:48:15;4.90;;;3.13;;
15043;SDS011;7619;48.562;8.910;2023-04-15T00:50:43;3.90;;;2.83;;
15043;SDS011;7619;48.562;8.910;2023-04-15T00:53:11;5.43;;;2.67;;
15043;SDS011;7619;48.562;8.910;2023-04-15T00:55:39;4.20;;;3.10;;
15043;SDS011;7619;48.562;8.910;2023-04-15T00:58:07;5.63;;;2.93;;
15043;SDS011;7619;48.562;8.910;2023-04-15T01:00:35;4.03;;;2.47;;
15043;SDS011;7619;48.562;8.910;2023-04-15T01:03:04;5.87;;;2.77;;
15043;SDS011;7619;48.562;8.910;2023-04-15T01:05:32;2.50;;;1.70;;
15043;SDS011;7619;48.562;8.910;2023-04-15T01:08:01;4.20;;;2.40;;
15043;SDS011;7619;48.562;8.910;2023-04-15T01:10:29;2.33;;;1.90;;
15043;SDS011;7619;48.562;8.910;2023-04-15T01:12:57;3.63;;;2.50;;
15043;SDS011;7619;48.562;8.910;2023-04-15T01:15:25;2.57;;;1.70;;
15043;SDS011;7619;48.562;8.910;2023-04-15T01:17:53;8.10;;;2.57;;
15043;SDS011;7619;48.562;8.910;2023-04-15T01:20:22;5.33;;;2.33;;
15043;SDS011;7619;48.562;8.910;2023-04-15T01:22:50;2.70;;;2.50;;
15043;SDS011;7619;48.562;8.910;2023-04-15T01:25:18;6.93;;;1.93;;
15043;SDS011;7619;48.562;8.910;2023-04-15T01:27:47;10.60;;;2.23;;
15043;SDS011;7619;48.562;8.910;2023-04-15T01:30:15;5.30;;;2.60;;
15043;SDS011;7619;48.562;8.910;2023-04-15T01:32:43;2.70;;;2.03;;
15043;SDS011;7619;48.562;8.910;2023-04-15T01:35:11;3.87;;;1.90;;
15043;SDS011;7619;48.562;8.910;2023-04-15T01:37:39;3.43;;;2.27;;
15043;SDS011;7619;48.562;8.910;2023-04-15T01:40:08;2.70;;;2.23;;
15043;SDS011;7619;48.562;8.910;2023-04-15T01:42:36;5.83;;;1.90;;
15043;SDS011;7619;48.562;8.910;2023-04-15T01:45:05;4.57;;;1.87;;
15043;SDS011;7619;48.562;8.910;2023-04-15T01:47:34;2.53;;;2.33;;
15043;SDS011;7619;48.562;8.910;2023-04-15T01:50:02;2.80;;;2.13;;
15043;SDS011;7619;48.562;8.910;2023-04-15T01:52:30;2.87;;;2.03;;
15043;SDS011;7619;48.562;8.910;2023-04-15T01:54:58;3.07;;;2.27;;
15043;SDS011;7619;48.562;8.910;2023-04-15T01:57:26;2.90;;;1.87;;
15043;SDS011;7619;48.562;8.910;2023-04-15T01:59:54;5.20;;;2.53;;
15043;SDS011;7619;48.562;8.910;2023-04-15T02:02:22;3.10;;;1.90;;
15043;SDS011;7619;48.562;8.910;2023-04-15T02:04:51;4.13;;;1.97;;
15043;SDS011;7619;48.562;8.910;2023-04-15T02:07:20;2.83;;;2.00;;
15043;SDS011;7619;48.562;8.910;2023-04-15T02:09:48;2.67;;;1.90;;
15043;SDS011;7619;48.562;8.910;2023-04-15T02:12:16;3.27;;;1.73;;
15043;SDS011;7619;48.562;8.910;2023-04-15T02:14:44;1.97;;;1.83;;
15043;SDS011;7619;48.562;8.910;2023-04-15T02:17:13;3.17;;;2.17;;
15043;SDS011;7619;48.562;8.910;2023-04-15T02:19:41;3.07;;;2.33;;
15043;SDS011;7619;48.562;8.910;2023-04-15T02:22:09;2.77;;;2.00;;
15043;SDS011;7619;48.562;8.910;2023-04-15T02:24:39;3.20;;;2.17;;
15043;SDS011;7619;48.562;8.910;2023-04-15T02:27:07;4.70;;;2.07;;
15043;SDS011;7619;48.562;8.910;2023-04-15T02:29:35;4.17;;;1.70;;
15043;SDS011;7619;48.562;8.910;2023-04-15T02:32:03;2.37;;;2.17;;
15043;SDS011;7619;48.562;8.910;2023-04-15T02:34:32;3.50;;;1.90;;
15043;SDS011;7619;48.562;8.910;2023-04-15T02:37:00;3.80;;;2.33;;
15043;SDS011;7619;48.562;8.910;2023-04-15T02:39:29;2.07;;;1.87;;
15043;SDS011;7619;48.562;8.910;2023-04-15T02:41:57;3.67;;;2.33;;
15043;SDS011;7619;48.562;8.910;2023-04-15T02:44:27;2.80;;;2.00;;
15043;SDS011;7619;48.562;8.910;2023-04-15T02:46:55;2.63;;;2.10;;
15043;SDS011;7619;48.562;8.910;2023-04-15T02:49:24;1.83;;;1.60;;
15043;SDS011;7619;48.562;8.910;2023-04-15T02:51:52;2.63;;;2.07;;
15043;SDS011;7619;48.562;8.910;2023-04-15T02:54:21;4.03;;;2.17;;
15043;SDS011;7619;48.562;8.910;2023-04-15T02:56:49;3.37;;;2.17;;
15043;SDS011;7619;48.562;8.910;2023-04-15T02:59:18;2.63;;;2.17;;
15043;SDS011;7619;48.562;8.910;2023-04-15T03:01:46;4.27;;;1.83;;
15043;SDS011;7619;48.562;8.910;2023-04-15T03:04:14;3.50;;;2.13;;
15043;SDS011;7619;48.562;8.910;2023-04-15T03:06:42;4.60;;;1.93;;
15043;SDS011;7619;48.562;8.910;2023-04-15T03:09:10;3.37;;;2.30;;
15043;SDS011;7619;48.562;8.910;2023-04-15T03:11:38;2.53;;;1.60;;
15043;SDS011;7619;48.562;8.910;2023-04-15T03:14:07;3.67;;;2.23;;
15043;SDS011;7619;48.562;8.910;2023-04-15T03:16:35;4.37;;;1.97;;
15043;SDS011;7619;48.562;8.910;2023-04-15T03:19:04;1.63;;;1.43;;
15043;SDS011;7619;48.562;8.910;2023-04-15T03:21:32;6.17;;;2.17;;
15043;SDS011;7619;48.562;8.910;2023-04-15T03:24:00;2.63;;;1.70;;
15043;SDS011;7619;48.562;8.910;2023-04-15T03:26:28;2.77;;;1.90;;
15043;SDS011;7619;48.562;8.910;2023-04-15T03:28:57;4.57;;;2.33;;
15043;SDS011;7619;48.562;8.910;2023-04-15T03:31:25;2.30;;;2.00;;
15043;SDS011;7619;48.562;8.910;2023-04-15T03:33:53;1.90;;;1.67;;
15043;SDS011;7619;48.562;8.910;2023-04-15T03:36:21;2.10;;;1.87;;
15043;SDS011;7619;48.562;8.910;2023-04-15T03:38:49;4.40;;;2.13;;
15043;SDS011;7619;48.562;8.910;2023-04-15T03:41:18;7.83;;;1.80;;
15043;SDS011;7619;48.562;8.910;2023-04-15T03:43:46;3.03;;;2.10;;
15043;SDS011;7619;48.562;8.910;2023-04-15T03:46:14;6.20;;;1.97;;
15043;SDS011;7619;48.562;8.910;2023-04-15T03:48:42;2.60;;;1.83;;
15043;SDS011;7619;48.562;8.910;2023-04-15T03:51:10;2.67;;;1.90;;
15043;SDS011;7619;48.562;8.910;2023-04-15T03:53:38;3.53;;;2.30;;
15043;SDS011;7619;48.562;8.910;2023-04-15T03:56:07;2.47;;;1.67;;
15043;SDS011;7619;48.562;8.910;2023-04-15T03:58:35;2.97;;;1.80;;
15043;SDS011;7619;48.562;8.910;2023-04-15T04:01:03;1.63;;;1.40;;
15043;SDS011;7619;48.562;8.910;2023-04-15T04:03:31;2.93;;;1.77;;
15043;SDS011;7619;48.562;8.910;2023-04-15T04:05:59;2.70;;;1.97;;
15043;SDS011;7619;48.562;8.910;2023-04-15T04:08:27;3.27;;;1.80;;
15043;SDS011;7619;48.562;8.910;2023-04-15T04:10:55;4.27;;;1.90;;
15043;SDS011;7619;48.562;8.910;2023-04-15T04:13:23;1.73;;;1.60;;
15043;SDS011;7619;48.562;8.910;2023-04-15T04:15:51;5.30;;;1.70;;
15043;SDS011;7619;48.562;8.910;2023-04-15T04:18:19;2.37;;;1.67;;
15043;SDS011;7619;48.562;8.910;2023-04-15T04:20:48;2.93;;;2.30;;
15043;SDS011;7619;48.562;8.910;2023-04-15T04:23:16;2.80;;;1.70;;
15043;SDS011;7619;48.562;8.910;2023-04-15T04:25:44;4.60;;;1.53;;
15043;SDS011;7619;48.562;8.910;2023-04-15T04:28:12;1.97;;;1.67;;
15043;SDS011;7619;48.562;8.910;2023-04-15T04:30:40;2.50;;;1.80;;
15043;SDS011;7619;48.562;8.910;2023-04-15T04:33:08;3.90;;;2.23;;
15043;SDS011;7619;48.562;8.910;2023-04-15T04:35:36;1.93;;;1.83;;
15043;SDS011;7619;48.562;8.910;2023-04-15T04:38:04;2.13;;;1.83;;
15043;SDS011;7619;48.562;8.910;2023-04-15T04:40:32;3.07;;;1.70;;
15043;SDS011;7619;48.562;8.910;2023-04-15T04:43:00;2.50;;;1.87;;
15043;SDS011;7619;48.562;8.910;2023-04-15T04:45:28;1.93;;;1.77;;
15043;SDS011;7619;48.562;8.910;2023-04-15T04:47:57;4.43;;;1.70;;
15043;SDS011;7619;48.562;8.910;2023-04-15T04:50:25;3.00;;;2.13;;
15043;SDS011;7619;48.562;8.910;2023-04-15T04:52:53;3.53;;;2.53;;
15043;SDS011;7619;48.562;8.910;2023-04-15T04:55:21;5.37;;;2.27;;
15043;SDS011;7619;48.562;8.910;2023-04-15T04:57:49;3.77;;;2.00;;
15043;SDS011;7619;48.562;8.910;2023-04-15T05:00:17;5.13;;;2.03;;
15043;SDS011;7619;48.562;8.910;2023-04-15T05:02:46;4.37;;;2.00;;
15043;SDS011;7619;48.562;8.910;2023-04-15T05:05:14;2.43;;;1.83;;
15043;SDS011;7619;48.562;8.910;2023-04-15T05:07:42;2.07;;;1.80;;
15043;SDS011;7619;48.562;8.910;2023-04-15T05:10:10;2.70;;;1.83;;
15043;SDS011;7619;48.562;8.910;2023-04-15T05:12:38;1.67;;;1.57;;
15043;SDS011;7619;48.562;8.910;2023-04-15T05:15:08;2.37;;;1.90;;
15043;SDS011;7619;48.562;8.910;2023-04-15T05:20:14;2.03;;;1.83;;
15043;SDS011;7619;48.562;8.910;2023-04-15T05:22:42;2.97;;;2.00;;
15043;SDS011;7619;48.562;8.910;2023-04-15T05:25:10;4.03;;;2.10;;
15043;SDS011;7619;48.562;8.910;2023-04-15T05:27:38;2.97;;;2.03;;
15043;SDS011;7619;48.562;8.910;2023-04-15T05:30:08;7.47;;;2.17;;
15043;SDS011;7619;48.562;8.910;2023-04-15T05:32:36;2.47;;;1.70;;
15043;SDS011;7619;48.562;8.910;2023-04-15T05:35:04;3.20;;;1.70;;
15043;SDS011;7619;48.562;8.910;2023-04-15T05:37:33;1.53;;;1.40;;
15043;SDS011;7619;48.562;8.910;2023-04-15T05:40:01;4.93;;;2.10;;
15043;SDS011;7619;48.562;8.910;2023-04-15T05:42:30;3.20;;;1.83;;
15043;SDS011;7619;48.562;8.910;2023-04-15T05:44:58;1.70;;;1.47;;
15043;SDS011;7619;48.562;8.910;2023-04-15T05:47:27;2.90;;;1.40;;
15043;SDS011;7619;48.562;8.910;2023-04-15T05:49:55;1.63;;;1.53;;
15043;SDS011;7619;48.562;8.910;2023-04-15T05:52:25;1.90;;;1.40;;
15043;SDS011;7619;48.562;8.910;2023-04-15T05:54:53;2.43;;;1.30;;
15043;SDS011;7619;48.562;8.910;2023-04-15T05:57:21;2.47;;;1.27;;
15043;SDS011;7619;48.562;8.910;2023-04-15T05:59:49;1.70;;;1.60;;
15043;SDS011;7619;48.562;8.910;2023-04-15T06:02:18;2.90;;;1.50;;
15043;SDS011;7619;48.562;8.910;2023-04-15T06:04:46;3.33;;;1.93;;
15043;SDS011;7619;48.562;8.910;2023-04-15T06:07:14;2.17;;;1.47;;
15043;SDS011;7619;48.562;8.910;2023-04-15T06:09:42;1.73;;;1.63;;
15043;SDS011;7619;48.562;8.910;2023-04-15T06:12:10;2.13;;;1.40;;
15043;SDS011;7619;48.562;8.910;2023-04-15T06:14:39;3.17;;;1.67;;
15043;SDS011;7619;48.562;8.910;2023-04-15T06:17:07;1.63;;;1.53;;
15043;SDS011;7619;48.562;8.910;2023-04-15T06:19:34;2.00;;;1.47;;
15043;SDS011;7619;48.562;8.910;2023-04-15T06:22:03;2.87;;;2.27;;
15043;SDS011;7619;48.562;8.910;2023-04-15T06:24:33;2.87;;;2.00;;
15043;SDS011;7619;48.562;8.910;2023-04-15T06:27:02;3.33;;;1.80;;
15043;SDS011;7619;48.562;8.910;2023-04-15T06:29:31;2.90;;;1.60;;
15043;SDS011;7619;48.562;8.910;2023-04-15T06:31:59;3.07;;;2.07;;
15043;SDS011;7619;48.562;8.910;2023-04-15T06:34:27;1.53;;;1.43;;
15043;SDS011;7619;48.562;8.910;2023-04-15T06:36:55;4.83;;;1.70;;
15043;SDS011;7619;48.562;8.910;2023-04-15T06:39:23;4.40;;;2.27;;
15043;SDS011;7619;48.562;8.910;2023-04-15T06:41:51;8.20;;;2.33;;
15043;SDS011;7619;48.562;8.910;2023-04-15T06:44:19;4.53;;;2.17;;
15043;SDS011;7619;48.562;8.910;2023-04-15T06:46:48;2.90;;;1.70;;
15043;SDS011;7619;48.562;8.910;2023-04-15T06:49:16;3.13;;;1.80;;
15043;SDS011;7619;48.562;8.910;2023-04-15T06:51:44;7.20;;;1.77;;
15043;SDS011;7619;48.562;8.910;2023-04-15T06:54:12;2.57;;;2.00;;
15043;SDS011;7619;48.562;8.910;2023-04-15T06:56:40;2.67;;;2.00;;
15043;SDS011;7619;48.562;8.910;2023-04-15T06:59:08;3.23;;;1.97;;
15043;SDS011;7619;48.562;8.910;2023-04-15T07:01:36;2.07;;;1.70;;
15043;SDS011;7619;48.562;8.910;2023-04-15T07:04:04;5.23;;;1.93;;
15043;SDS011;7619;48.562;8.910;2023-04-15T07:06:32;4.27;;;1.90;;
15043;SDS011;7619;48.562;8.910;2023-04-15T07:09:01;2.20;;;1.63;;
15043;SDS011;7619;48.562;8.910;2023-04-15T07:11:30;3.03;;;1.60;;
15043;SDS011;7619;48.562;8.910;2023-04-15T07:13:58;4.87;;;2.20;;
15043;SDS011;7619;48.562;8.910;2023-04-15T07:16:26;5.27;;;2.10;;
15043;SDS011;7619;48.562;8.910;2023-04-15T07:18:54;3.57;;;1.77;;
15043;SDS011;7619;48.562;8.910;2023-04-15T07:21:23;3.03;;;1.90;;
15043;SDS011;7619;48.562;8.910;2023-04-15T07:23:51;3.07;;;1.70;;
15043;SDS011;7619;48.562;8.910;2023-04-15T07:26:19;4.03;;;2.03;;
15043;SDS011;7619;48.562;8.910;2023-04-15T07:28:48;3.87;;;1.70;;
15043;SDS011;7619;48.562;8.910;2023-04-15T07:31:16;2.23;;;1.60;;
15043;SDS011;7619;48.562;8.910;2023-04-15T07:33:44;3.53;;;2.07;;
15043;SDS011;7619;48.562;8.910;2023-04-15T07:36:12;5.23;;;1.90;;
15043;SDS011;7619;48.562;8.910;2023-04-15T07:38:41;8.43;;;2.00;;
15043;SDS011;7619;48.562;8.910;2023-04-15T07:41:09;3.27;;;1.80;;
15043;SDS011;7619;48.562;8.910;2023-04-15T07:43:37;3.70;;;2.00;;
15043;SDS011;7619;48.562;8.910;2023-04-15T07:46:05;7.13;;;2.40;;
15043;SDS011;7619;48.562;8.910;2023-04-15T07:48:33;1.87;;;1.70;;
15043;SDS011;7619;48.562;8.910;2023-04-15T07:51:01;2.67;;;1.63;;
15043;SDS011;7619;48.562;8.910;2023-04-15T07:53:29;2.00;;;1.80;;
15043;SDS011;7619;48.562;8.910;2023-04-15T07:55:58;2.57;;;1.97;;
15043;SDS011;7619;48.562;8.910;2023-04-15T07:58:27;2.60;;;2.00;;
15043;SDS011;7619;48.562;8.910;2023-04-15T08:00:55;1.73;;;1.63;;
15043;SDS011;7619;48.562;8.910;2023-04-15T08:03:23;8.17;;;2.30;;
15043;SDS011;7619;48.562;8.910;2023-04-15T08:05:51;3.03;;;2.23;;
15043;SDS011;7619;48.562;8.910;2023-04-15T08:08:20;4.30;;;2.47;;
15043;SDS011;7619;48.562;8.910;2023-04-15T08:10:48;3.50;;;2.23;;
15043;SDS011;7619;48.562;8.910;2023-04-15T08:13:16;4.17;;;2.50;;
15043;SDS011;7619;48.562;8.910;2023-04-15T08:15:44;3.00;;;1.93;;
15043;SDS011;7619;48.562;8.910;2023-04-15T08:18:12;2.77;;;2.17;;
15043;SDS011;7619;48.562;8.910;2023-04-15T08:20:40;3.60;;;1.80;;
15043;SDS011;7619;48.562;8.910;2023-04-15T08:23:08;5.23;;;2.27;;
15043;SDS011;7619;48.562;8.910;2023-04-15T08:25:37;2.67;;;1.83;;
15043;SDS011;7619;48.562;8.910;2023-04-15T08:28:05;3.40;;;2.03;;
15043;SDS011;7619;48.562;8.910;2023-04-15T08:30:33;6.63;;;2.27;;
15043;SDS011;7619;48.562;8.910;2023-04-15T08:33:02;4.50;;;2.00;;
15043;SDS011;7619;48.562;8.910;2023-04-15T08:35:30;3.47;;;1.70;;
15043;SDS011;7619;48.562;8.910;2023-04-15T08:37:58;4.40;;;1.90;;
15043;SDS011;7619;48.562;8.910;2023-04-15T08:40:26;5.00;;;1.80;;
15043;SDS011;7619;48.562;8.910;2023-04-15T08:42:56;3.03;;;2.40;;
15043;SDS011;7619;48.562;8.910;2023-04-15T08:45:25;3.87;;;1.93;;
15043;SDS011;7619;48.562;8.910;2023-04-15T08:47:53;1.93;;;1.77;;
15043;SDS011;7619;48.562;8.910;2023-04-15T08:50:23;3.43;;;1.70;;
15043;SDS011;7619;48.562;8.910;2023-04-15T08:52:52;3.00;;;1.70;;
15043;SDS011;7619;48.562;8.910;2023-04-15T08:55:21;4.27;;;2.03;;
15043;SDS011;7619;48.562;8.910;2023-04-15T08:57:50;5.00;;;2.00;;
15043;SDS011;7619;48.562;8.910;2023-04-15T09:00:18;1.93;;;1.50;;
15043;SDS011;7619;48.562;8.910;2023-04-15T09:02:46;5.23;;;2.33;;
15043;SDS011;7619;48.562;8.910;2023-04-15T09:05:14;3.77;;;2.30;;
15043;SDS011;7619;48.562;8.910;2023-04-15T09:07:43;7.67;;;2.20;;
15043;SDS011;7619;48.562;8.910;2023-04-15T09:10:11;2.63;;;1.60;;
15043;SDS011;7619;48.562;8.910;2023-04-15T09:12:39;3.37;;;1.73;;
15043;SDS011;7619;48.562;8.910;2023-04-15T09:15:10;3.60;;;1.80;;
15043;SDS011;7619;48.562;8.910;2023-04-15T09:17:41;4.77;;;2.07;;
15043;SDS011;7619;48.562;8.910;2023-04-15T09:20:10;3.87;;;2.33;;
15043;SDS011;7619;48.562;8.910;2023-04-15T09:22:39;2.97;;;1.93;;
15043;SDS011;7619;48.562;8.910;2023-04-15T09:25:24;4.37;;;2.33;;
15043;SDS011;7619;48.562;8.910;2023-04-15T09:27:54;2.93;;;1.87;;
15043;SDS011;7619;48.562;8.910;2023-04-15T09:30:22;3.10;;;2.37;;
15043;SDS011;7619;48.562;8.910;2023-04-15T09:32:51;5.13;;;2.23;;
15043;SDS011;7619;48.562;8.910;2023-04-15T09:35:19;5.07;;;2.10;;
15043;SDS011;7619;48.562;8.910;2023-04-15T09:37:48;4.00;;;2.80;;
15043;SDS011;7619;48.562;8.910;2023-04-15T09:40:21;2.80;;;2.17;;
15043;SDS011;7619;48.562;8.910;2023-04-15T09:42:54;4.67;;;2.10;;
15043;SDS011;7619;48.562;8.910;2023-04-15T09:45:23;5.57;;;2.07;;
15043;SDS011;7619;48.562;8.910;2023-04-15T09:47:51;3.20;;;2.03;;
15043;SDS011;7619;48.562;8.910;2023-04-15T09:50:19;3.10;;;2.20;;
15043;SDS011;7619;48.562;8.910;2023-04-15T09:52:47;5.20;;;2.10;;
15043;SDS011;7619;48.562;8.910;2023-04-15T09:55:16;1.87;;;1.63;;
15043;SDS011;7619;48.562;8.910;2023-04-15T09:57:45;4.73;;;2.40;;
15043;SDS011;7619;48.562;8.910;2023-04-15T10:00:14;6.27;;;2.20;;
15043;SDS011;7619;48.562;8.910;2023-04-15T10:02:42;3.17;;;2.47;;
15043;SDS011;7619;48.562;8.910;2023-04-15T10:05:10;6.73;;;2.13;;
15043;SDS011;7619;48.562;8.910;2023-04-15T10:07:40;4.03;;;1.97;;
15043;SDS011;7619;48.562;8.910;2023-04-15T10:10:09;3.83;;;2.30;;
15043;SDS011;7619;48.562;8.910;2023-04-15T10:12:37;4.80;;;1.43;;
15043;SDS011;7619;48.562;8.910;2023-04-15T10:15:08;3.73;;;1.70;;
15043;SDS011;7619;48.562;8.910;2023-04-15T10:17:37;3.10;;;1.67;;
15043;SDS011;7619;48.562;8.910;2023-04-15T10:20:07;4.17;;;1.20;;
15043;SDS011;7619;48.562;8.910;2023-04-15T10:22:35;2.83;;;1.50;;
15043;SDS011;7619;48.562;8.910;2023-04-15T10:25:05;6.53;;;1.43;;
15043;SDS011;7619;48.562;8.910;2023-04-15T10:27:33;1.20;;;1.10;;
15043;SDS011;7619;48.562;8.910;2023-04-15T10:30:02;2.23;;;1.60;;
15043;SDS011;7619;48.562;8.910;2023-04-15T10:32:31;2.00;;;1.07;;
15043;SDS011;7619;48.562;8.910;2023-04-15T10:34:59;5.83;;;1.97;;
15043;SDS011;7619;48.562;8.910;2023-04-15T10:37:33;2.73;;;1.20;;
15043;SDS011;7619;48.562;8.910;2023-04-15T10:40:12;2.40;;;1.40;;
15043;SDS011;7619;48.562;8.910;2023-04-15T10:42:42;3.20;;;1.50;;
15043;SDS011;7619;48.562;8.910;2023-04-15T10:45:15;2.07;;;1.30;;
15043;SDS011;7619;48.562;8.910;2023-04-15T10:47:45;2.10;;;1.20;;
15043;SDS011;7619;48.562;8.910;2023-04-15T10:50:13;2.13;;;0.97;;
15043;SDS011;7619;48.562;8.910;2023-04-15T10:52:41;1.47;;;1.10;;
15043;SDS011;7619;48.562;8.910;2023-04-15T10:55:13;5.53;;;1.50;;
15043;SDS011;7619;48.562;8.910;2023-04-15T10:57:42;2.07;;;0.90;;
15043;SDS011;7619;48.562;8.910;2023-04-15T11:00:12;1.87;;;0.93;;
15043;SDS011;7619;48.562;8.910;2023-04-15T11:02:41;2.00;;;0.90;;
15043;SDS011;7619;48.562;8.910;2023-04-15T11:05:10;2.47;;;1.17;;
15043;SDS011;7619;48.562;8.910;2023-04-15T11:07:39;2.03;;;0.83;;
15043;SDS011;7619;48.562;8.910;2023-04-15T11:12:55;1.87;;;1.20;;
15043;SDS011;7619;48.562;8.910;2023-04-15T11:15:27;3.23;;;0.77;;
15043;SDS011;7619;48.562;8.910;2023-04-15T11:17:57;1.67;;;1.00;;
15043;SDS011;7619;48.562;8.910;2023-04-15T11:20:25;3.60;;;0.83;;
15043;SDS011;7619;48.562;8.910;2023-04-15T11:22:53;1.77;;;0.90;;
15043;SDS011;7619;48.562;8.910;2023-04-15T11:25:22;1.90;;;1.00;;
15043;SDS011;7619;48.562;8.910;2023-04-15T11:27:50;2.57;;;1.17;;
15043;SDS011;7619;48.562;8.910;2023-04-15T11:30:21;3.33;;;1.33;;
15043;SDS011;7619;48.562;8.910;2023-04-15T11:32:50;1.83;;;1.17;;
15043;SDS011;7619;48.562;8.910;2023-04-15T11:35:18;2.00;;;1.00;;
15043;SDS011;7619;48.562;8.910;2023-04-15T11:37:46;1.97;;;1.20;;
15043;SDS011;7619;48.562;8.910;2023-04-15T11:40:16;1.43;;;1.17;;
15043;SDS011;7619;48.562;8.910;2023-04-15T11:42:44;3.57;;;1.23;;
15043;SDS011;7619;48.562;8.910;2023-04-15T11:45:13;2.00;;;0.63;;
15043;SDS011;7619;48.562;8.910;2023-04-15T11:47:42;1.60;;;0.90;;
15043;SDS011;7619;48.562;8.910;2023-04-15T11:50:13;1.33;;;1.07;;
15043;SDS011;7619;48.562;8.910;2023-04-15T11:52:51;1.87;;;1.33;;
15043;SDS011;7619;48.562;8.910;2023-04-15T11:55:20;3.67;;;0.97;;
15043;SDS011;7619;48.562;8.910;2023-04-15T11:57:49;3.43;;;1.10;;
15043;SDS011;7619;48.562;8.910;2023-04-15T12:00:19;4.13;;;1.07;;
15043;SDS011;7619;48.562;8.910;2023-04-15T12:02:47;1.27;;;1.00;;
15043;SDS011;7619;48.562;8.910;2023-04-15T12:05:15;1.63;;;1.00;;
15043;SDS011;7619;48.562;8.910;2023-04-15T12:07:56;3.47;;;1.17;;
15043;SDS011;7619;48.562;8.910;2023-04-15T12:10:24;2.17;;;1.40;;
15043;SDS011;7619;48.562;8.910;2023-04-15T12:12:53;3.40;;;1.43;;
15043;SDS011;7619;48.562;8.910;2023-04-15T12:15:21;2.33;;;1.13;;
15043;SDS011;7619;48.562;8.910;2023-04-15T12:17:53;0.70;;;0.70;;
15043;SDS011;7619;48.562;8.910;2023-04-15T12:20:25;5.07;;;1.87;;
15043;SDS011;7619;48.562;8.910;2023-04-15T12:22:53;2.47;;;1.23;;
15043;SDS011;7619;48.562;8.910;2023-04-15T12:25:32;2.70;;;1.30;;
15043;SDS011;7619;48.562;8.910;2023-04-15T12:28:01;3.33;;;1.87;;
15043;SDS011;7619;48.562;8.910;2023-04-15T12:30:29;4.30;;;1.40;;
15043;SDS011;7619;48.562;8.910;2023-04-15T12:32:57;3.07;;;1.50;;
15043;SDS011;7619;48.562;8.910;2023-04-15T12:35:27;4.10;;;1.60;;
15043;SDS011;7619;48.562;8.910;2023-04-15T12:37:55;2.43;;;1.53;;
15043;SDS011;7619;48.562;8.910;2023-04-15T12:40:23;3.87;;;1.40;;
15043;SDS011;7619;48.562;8.910;2023-04-15T12:42:52;1.57;;;1.40;;
15043;SDS011;7619;48.562;8.910;2023-04-15T12:45:20;1.47;;;1.27;;
15043;SDS011;7619;48.562;8.910;2023-04-15T12:47:48;2.13;;;1.27;;
15043;SDS011;7619;48.562;8.910;2023-04-15T12:50:16;4.33;;;1.10;;
15043;SDS011;7619;48.562;8.910;2023-04-15T12:52:44;3.53;;;1.27;;
15043;SDS011;7619;48.562;8.910;2023-04-15T12:55:13;2.07;;;1.40;;
15043;SDS011;7619;48.562;8.910;2023-04-15T12:57:41;3.63;;;1.40;;
15043;SDS011;7619;48.562;8.910;2023-04-15T13:00:10;5.73;;;1.50;;
15043;SDS011;7619;48.562;8.910;2023-04-15T13:02:39;2.57;;;1.33;;
15043;SDS011;7619;48.562;8.910;2023-04-15T13:05:07;2.60;;;1.50;;
15043;SDS011;7619;48.562;8.910;2023-04-15T13:07:35;1.83;;;1.37;;
15043;SDS011;7619;48.562;8.910;2023-04-15T13:10:04;2.03;;;1.47;;
15043;SDS011;7619;48.562;8.910;2023-04-15T13:12:32;4.17;;;1.90;;
15043;SDS011;7619;48.562;8.910;2023-04-15T13:15:02;3.43;;;1.97;;
15043;SDS011;7619;48.562;8.910;2023-04-15T13:17:30;3.73;;;2.00;;
15043;SDS011;7619;48.562;8.910;2023-04-15T13:19:58;3.37;;;2.20;;
15043;SDS011;7619;48.562;8.910;2023-04-15T13:22:27;4.80;;;2.20;;
15043;SDS011;7619;48.562;8.910;2023-04-15T13:24:55;2.87;;;2.03;;
15043;SDS011;7619;48.562;8.910;2023-04-15T13:27:23;2.17;;;1.63;;
15043;SDS011;7619;48.562;8.910;2023-04-15T13:29:51;4.73;;;2.60;;
15043;SDS011;7619;48.562;8.910;2023-04-15T13:32:19;2.83;;;2.00;;
15043;SDS011;7619;48.562;8.910;2023-04-15T13:34:47;4.33;;;1.80;;
15043;SDS011;7619;48.562;8.910;2023-04-15T13:37:15;3.17;;;1.60;;
15043;SDS011;7619;48.562;8.910;2023-04-15T13:39:43;5.10;;;2.43;;
15043;SDS011;7619;48.562;8.910;2023-04-15T13:42:11;3.77;;;2.10;;
15043;SDS011;7619;48.562;8.910;2023-04-15T13:44:39;4.67;;;1.67;;
15043;SDS011;7619;48.562;8.910;2023-04-15T13:47:07;4.53;;;1.90;;
15043;SDS011;7619;48.562;8.910;2023-04-15T13:49:36;4.57;;;2.50;;
15043;SDS011;7619;48.562;8.910;2023-04-15T13:52:04;2.13;;;1.90;;
15043;SDS011;7619;48.562;8.910;2023-04-15T13:54:32;2.40;;;1.47;;
15043;SDS011;7619;48.562;8.910;2023-04-15T13:57:00;2.70;;;1.33;;
15043;SDS011;7619;48.562;8.910;2023-04-15T13:59:28;3.40;;;1.70;;
15043;SDS011;7619;48.562;8.910;2023-04-15T14:01:56;2.87;;;2.03;;
15043;SDS011;7619;48.562;8.910;2023-04-15T14:04:24;3.90;;;2.00;;
15043;SDS011;7619;48.562;8.910;2023-04-15T14:06:52;4.80;;;2.20;;
15043;SDS011;7619;48.562;8.910;2023-04-15T14:09:20;4.53;;;2.13;;
15043;SDS011;7619;48.562;8.910;2023-04-15T14:11:49;2.03;;;1.73;;
15043;SDS011;7619;48.562;8.910;2023-04-15T14:14:17;3.87;;;2.13;;
15043;SDS011;7619;48.562;8.910;2023-04-15T14:16:46;3.70;;;1.70;;
15043;SDS011;7619;48.562;8.910;2023-04-15T14:19:14;2.60;;;1.97;;
15043;SDS011;7619;48.562;8.910;2023-04-15T14:21:42;3.13;;;1.83;;
15043;SDS011;7619;48.562;8.910;2023-04-15T14:24:10;2.57;;;1.70;;
15043;SDS011;7619;48.562;8.910;2023-04-15T14:26:38;3.97;;;1.33;;
15043;SDS011;7619;48.562;8.910;2023-04-15T14:29:06;2.00;;;1.53;;
15043;SDS011;7619;48.562;8.910;2023-04-15T14:31:34;2.57;;;1.73;;
15043;SDS011;7619;48.562;8.910;2023-04-15T14:34:02;2.30;;;1.63;;
15043;SDS011;7619;48.562;8.910;2023-04-15T14:36:30;5.83;;;2.23;;
15043;SDS011;7619;48.562;8.910;2023-04-15T14:38:59;2.33;;;1.70;;
15043;SDS011;7619;48.562;8.910;2023-04-15T14:41:27;2.63;;;1.80;;
15043;SDS011;7619;48.562;8.910;2023-04-15T14:43:55;2.80;;;1.80;;
15043;SDS011;7619;48.562;8.910;2023-04-15T14:46:23;2.17;;;1.43;;
15043;SDS011;7619;48.562;8.910;2023-04-15T14:48:51;4.03;;;1.97;;
15043;SDS011;7619;48.562;8.910;2023-04-15T14:51:19;5.07;;;2.00;;
15043;SDS011;7619;48.562;8.910;2023-04-15T14:53:48;3.40;;;2.03;;
15043;SDS011;7619;48.562;8.910;2023-04-15T14:56:16;2.50;;;1.67;;
15043;SDS011;7619;48.562;8.910;2023-04-15T14:58:44;1.40;;;1.30;;
15043;SDS011;7619;48.562;8.910;2023-04-15T15:01:12;4.07;;;2.10;;
15043;SDS011;7619;48.562;8.910;2023-04-15T15:03:40;2.27;;;1.43;;
15043;SDS011;7619;48.562;8.910;2023-04-15T15:06:09;1.30;;;1.20;;
15043;SDS011;7619;48.562;8.910;2023-04-15T15:08:37;2.63;;;1.40;;
15043;SDS011;7619;48.562;8.910;2023-04-15T15:11:05;1.70;;;1.60;;
15043;SDS011;7619;48.562;8.910;2023-04-15T15:13:33;2.47;;;1.80;;